Date,TemperatureHighF,TemperatureAvgF,TemperatureLowF,DewpointHighF,DewpointAvgF,DewpointLowF,HumidityHigh,HumidityAvg,HumidityLow,PressureMaxIn,PressureMinIn,WindSpeedMaxMPH,WindSpeedAvgMPH,GustSpeedMaxMPH,PrecipitationSumIn
2013-2-1,53,46,37,29,23,14,52,40,29,30.15,29.88,5,1,11,0.00
2013-2-2,58,43,30,32,21,12,54,43,32,30.15,29.88,4,-68,7,0.00
2013-2-3,63,50,41,36,32,27,70,51,35,29.88,29.71,5,1,10,0.00
2013-2-4,52,45,38,32,28,24,64,52,41,29.94,29.82,3,0,6,0.00
2013-2-5,66,51,37,48,39,30,80,65,46,29.85,29.74,2,0,4,0.00
2013-2-6,71,55,44,50,42,36,92,65,34,29.97,29.79,3,-126,6,0.00
2013-2-7,52,49,46,49,45,36,97,85,63,29.97,29.65,4,1,8,2.20
2013-2-8,62,52,46,52,47,44,95,83,67,29.91,29.68,6,-15,6,0.00
2013-2-9,63,50,36,44,38,33,90,66,40,30.12,29.88,4,-109,5,0.00
2013-2-10,67,53,41,55,42,33,91,67,50,30.21,29.88,5,-214,11,0.16
2013-2-11,66,60,56,65,59,55,98,97,91,30.00,29.82,4,-94,6,0.99
2013-2-12,65,57,51,56,52,49,98,86,57,29.91,29.65,3,-122,5,0.71
2013-2-13,59,53,49,58,50,43,98,92,78,29.68,29.47,3,0,6,0.04
2013-2-14,54,46,40,43,40,37,90,79,62,29.88,29.65,2,0,5,0.00
2013-2-15,64,50,35,47,40,33,95,69,41,29.91,29.71,3,-29,6,0.00
2013-2-16,52,44,36,41,32,15,89,66,38,29.88,29.62,5,-109,11,0.12
2013-2-17,50,39,31,24,17,13,51,42,32,30.09,29.88,4,1,9,0.00
2013-2-18,59,44,30,32,24,17,66,48,35,30.21,30.00,4,1,9,0.00
2013-2-19,56,46,40,50,38,25,92,75,48,30.03,29.77,2,0,5,0.21
2013-2-20,60,48,34,34,30,25,74,52,34,30.00,29.82,3,-52,5,0.00
2013-2-21,65,51,37,37,32,24,66,48,33,30.00,29.82,4,-35,6,0.00
2013-2-22,54,47,43,43,40,34,94,78,49,30.00,29.88,3,1,6,0.71
2013-2-23,48,45,42,47,44,40,98,97,94,29.91,29.65,3,0,8,0.62
2013-2-24,72,55,47,53,46,39,98,75,37,29.79,29.65,3,-142,6,0.00
2013-2-25,51,48,43,42,38,34,84,69,53,29.85,29.71,5,-4,8,0.00
2013-2-26,54,47,41,53,46,38,98,94,82,29.74,29.35,3,-9,6,0.83
2013-2-27,65,50,42,46,41,38,97,73,44,29.68,29.56,3,-61,6,0.00
2013-2-28,59,49,42,41,34,25,74,56,40,29.74,29.59,4,2,9,0.00